TimeCDT,TemperatureF,Dew PointF,Humidity,Sea Level PressureIn,VisibilityMPH,Wind Direction,Wind SpeedMPH,Gust SpeedMPH,PrecipitationIn,Events,Conditions,WindDirDegrees,DateUTC
12:56 AM,73.9,57.9,57,29.71,10.0,SSE,18.4,26.5,N/A,,Clear,150,2013-09-27 05:56:00
1:56 AM,73.9,59.0,59,29.70,10.0,SSE,21.9,31.1,N/A,,Clear,160,2013-09-27 06:56:00
2:56 AM,73.9,59.0,59,29.70,10.0,SSE,18.4,26.5,N/A,,Clear,160,2013-09-27 07:56:00
3:56 AM,73.0,57.9,59,29.68,10.0,SSE,18.4,-,N/A,,Clear,150,2013-09-27 08:56:00
4:56 AM,72.0,57.9,61,29.68,10.0,SSE,19.6,24.2,N/A,,Clear,160,2013-09-27 09:56:00
5:56 AM,72.0,57.9,61,29.68,10.0,South,20.7,32.2,0.00,,Scattered Clouds,170,2013-09-27 10:56:00
6:56 AM,72.0,57.9,61,29.70,10.0,SSE,13.8,-,0.00,Rain,Light Rain,160,2013-09-27 11:56:00
7:56 AM,71.1,57.9,63,29.70,10.0,SSE,18.4,27.6,0.00,,Clear,150,2013-09-27 12:56:00
8:56 AM,73.9,57.9,57,29.70,10.0,SSE,21.9,25.3,N/A,,Clear,160,2013-09-27 13:56:00
9:56 AM,75.0,57.9,55,29.72,10.0,South,13.8,-,N/A,,Clear,170,2013-09-27 14:56:00
10:56 AM,79.0,57.0,47,29.71,10.0,South,19.6,28.8,N/A,,Clear,170,2013-09-27 15:56:00
11:56 AM,82.9,57.0,41,29.70,10.0,South,13.8,25.3,N/A,,Clear,180,2013-09-27 16:56:00
12:56 PM,82.0,55.9,41,29.71,10.0,South,17.3,-,N/A,,Clear,190,2013-09-27 17:56:00
1:56 PM,86.0,55.9,36,29.70,10.0,South,18.4,29.9,N/A,,Clear,180,2013-09-27 18:56:00
2:56 PM,86.0,57.0,37,29.69,10.0,South,25.3,32.2,N/A,,Clear,170,2013-09-27 19:56:00
3:56 PM,86.0,57.9,38,29.69,10.0,South,20.7,29.9,N/A,,Clear,170,2013-09-27 20:56:00
4:56 PM,87.1,59.0,39,29.68,10.0,SSE,20.7,26.5,N/A,,Clear,160,2013-09-27 21:56:00
5:56 PM,86.0,59.0,40,29.68,10.0,South,18.4,25.3,N/A,,Clear,170,2013-09-27 22:56:00
6:56 PM,82.9,60.1,46,29.66,10.0,SSE,15.0,24.2,N/A,,Partly Cloudy,150,2013-09-27 23:56:00
7:56 PM,81.0,59.0,47,29.68,10.0,SSE,17.3,23.0,N/A,,Partly Cloudy,150,2013-09-28 00:56:00
8:56 PM,80.1,59.0,48,29.69,10.0,SSE,20.7,26.5,N/A,,Mostly Cloudy,160,2013-09-28 01:56:00
9:56 PM,78.1,57.9,50,29.67,10.0,South,8.1,20.7,N/A,,Mostly Cloudy,180,2013-09-28 02:56:00
10:56 PM,78.1,57.0,48,29.64,10.0,South,20.7,31.1,N/A,,Overcast,170,2013-09-28 03:56:00
11:56 PM,75.9,57.0,52,29.62,10.0,SSE,25.3,34.5,N/A,,Mostly Cloudy,160,2013-09-28 04:56:00